NKS527 KFLL-MMUN
Flight info
| Callsign | NKS527 |
|---|---|
| Flight time | N/A |
| Altitude | 38000 |
| Route | GLADZ4 LULLS Y196 CANOA UB879 NOSAT NOSAT1B |
| Aircraft | A20N/M-SDE2E3FGHIRWXY/LB1 |
Departure
| Time | 2026-05-03 22:29 |
|---|---|
| Airport | Fort Lauderdale Hollywood International Airport (KFLL) |
Arrival
| Time | N/A |
|---|---|
| Airport | Cancún International Airport (MMUN) |
| Time | Latitude | Longitude | Altitude | Speed | Heading |
|---|---|---|---|---|---|
| 2026-05-03 21:24 | 26.07036 | -80.14580 | 17 ft | 0 kts | 21° |
| 2026-05-03 21:25 | 26.07055 | -80.14624 | 15 ft | 0 kts | 360° |
| 2026-05-03 21:38 | 26.07049 | -80.14624 | 17 ft | 1 kts | 360° |
| 2026-05-03 21:39 | 26.07034 | -80.14624 | 15 ft | 4 kts | 360° |
| 2026-05-03 21:39 | 26.07007 | -80.14623 | 16 ft | 4 kts | 336° |
| 2026-05-03 21:39 | 26.06993 | -80.14604 | 17 ft | 0 kts | 272° |
| 2026-05-03 21:55 | 26.06993 | -80.14605 | 15 ft | 0 kts | 272° |
| 2026-05-03 21:56 | 26.06993 | -80.14607 | 15 ft | 4 kts | 272° |
| 2026-05-03 21:56 | 26.06994 | -80.14638 | 15 ft | 0 kts | 273° |
| 2026-05-03 21:56 | 26.06995 | -80.14643 | 15 ft | 3 kts | 273° |
| 2026-05-03 21:57 | 26.06991 | -80.14693 | 15 ft | 9 kts | 255° |
| 2026-05-03 21:57 | 26.06947 | -80.14764 | 15 ft | 9 kts | 235° |
| 2026-05-03 21:57 | 26.06917 | -80.14816 | 15 ft | 7 kts | 250° |
| 2026-05-03 21:57 | 26.06911 | -80.14893 | 15 ft | 13 kts | 267° |
| 2026-05-03 21:58 | 26.06912 | -80.15013 | 15 ft | 18 kts | 271° |
| 2026-05-03 21:58 | 26.06884 | -80.15127 | 15 ft | 15 kts | 221° |
| 2026-05-03 21:58 | 26.06778 | -80.15131 | 16 ft | 18 kts | 181° |
| 2026-05-03 21:58 | 26.06698 | -80.15188 | 23 ft | 15 kts | 257° |
| 2026-05-03 21:59 | 26.06697 | -80.15327 | 16 ft | 22 kts | 270° |
| 2026-05-03 21:59 | 26.06697 | -80.15454 | 16 ft | 11 kts | 271° |
| 2026-05-03 21:59 | 26.06697 | -80.15492 | 16 ft | 0 kts | 271° |
| 2026-05-03 22:05 | 26.06698 | -80.15495 | 16 ft | 0 kts | 271° |
| 2026-05-03 22:06 | 26.06698 | -80.15507 | 25 ft | 5 kts | 271° |
| 2026-05-03 22:06 | 26.06698 | -80.15574 | 16 ft | 11 kts | 270° |
| 2026-05-03 22:06 | 26.06698 | -80.15580 | 16 ft | 0 kts | 270° |
| 2026-05-03 22:10 | 26.06698 | -80.15653 | 16 ft | 0 kts | 269° |
| 2026-05-03 22:19 | 26.06698 | -80.15692 | 16 ft | 7 kts | 269° |
| 2026-05-03 22:19 | 26.06698 | -80.15730 | 16 ft | 1 kts | 270° |
| 2026-05-03 22:19 | 26.06698 | -80.15771 | 16 ft | 5 kts | 271° |
| 2026-05-03 22:19 | 26.06698 | -80.15773 | 16 ft | 0 kts | 271° |
| 2026-05-03 22:20 | 26.06697 | -80.15787 | 16 ft | 5 kts | 257° |
| 2026-05-03 22:21 | 26.06682 | -80.15812 | 18 ft | 2 kts | 226° |
| 2026-05-03 22:21 | 26.06678 | -80.15815 | 17 ft | 0 kts | 217° |
| 2026-05-03 22:22 | 26.06678 | -80.15816 | 17 ft | 0 kts | 217° |
| 2026-05-03 22:27 | 26.06675 | -80.15818 | 16 ft | 3 kts | 215° |
| 2026-05-03 22:27 | 26.06617 | -80.15822 | 17 ft | 14 kts | 166° |
| 2026-05-03 22:27 | 26.06588 | -80.15770 | 19 ft | 1 kts | 96° |
| 2026-05-03 22:28 | 26.06588 | -80.15768 | 19 ft | 0 kts | 95° |
| 2026-05-03 22:28 | 26.06587 | -80.15753 | 19 ft | 6 kts | 93° |
| 2026-05-03 22:28 | 26.06587 | -80.15353 | 22 ft | 108 kts | 91° |
| 2026-05-03 22:28 | 26.06569 | -80.14180 | 259 ft | 180 kts | 89° |
| 2026-05-03 22:29 | 26.06509 | -80.12702 | 1070 ft | 199 kts | 90° |
| 2026-05-03 22:29 | 26.06701 | -80.11216 | 2295 ft | 195 kts | 71° |
| 2026-05-03 22:29 | 26.07287 | -80.09758 | 3113 ft | 220 kts | 60° |
| 2026-05-03 22:29 | 26.08159 | -80.08216 | 3542 ft | 259 kts | 51° |
| 2026-05-03 22:30 | 26.09573 | -80.06874 | 3803 ft | 272 kts | 26° |
| 2026-05-03 22:30 | 26.11352 | -80.06126 | 3950 ft | 274 kts | 15° |
| 2026-05-03 22:30 | 26.13162 | -80.05455 | 3995 ft | 275 kts | 16° |
| 2026-05-03 22:30 | 26.15012 | -80.04945 | 4005 ft | 272 kts | 2° |
| 2026-05-03 22:31 | 26.16872 | -80.05145 | 4007 ft | 268 kts | 341° |
| 2026-05-03 22:31 | 26.18632 | -80.05825 | 4007 ft | 267 kts | 338° |
| 2026-05-03 22:31 | 26.20385 | -80.06513 | 4108 ft | 270 kts | 338° |
| 2026-05-03 22:31 | 26.22005 | -80.07533 | 4741 ft | 267 kts | 314° |
| 2026-05-03 22:32 | 26.23044 | -80.09191 | 5757 ft | 263 kts | 292° |
| 2026-05-03 22:32 | 26.23752 | -80.11080 | 6362 ft | 266 kts | 290° |
| 2026-05-03 22:32 | 26.24435 | -80.13001 | 6692 ft | 267 kts | 289° |
| 2026-05-03 22:32 | 26.25064 | -80.14945 | 6879 ft | 267 kts | 284° |
| 2026-05-03 22:33 | 26.25386 | -80.16974 | 6989 ft | 265 kts | 273° |
| 2026-05-03 22:33 | 26.25385 | -80.19025 | 6996 ft | 266 kts | 267° |
| 2026-05-03 22:33 | 26.25323 | -80.21088 | 7000 ft | 267 kts | 267° |
| 2026-05-03 22:33 | 26.25270 | -80.23147 | 6998 ft | 263 kts | 268° |
| 2026-05-03 22:34 | 26.25226 | -80.25194 | 7042 ft | 267 kts | 268° |
| 2026-05-03 22:34 | 26.25189 | -80.27278 | 7531 ft | 269 kts | 268° |
| 2026-05-03 22:34 | 26.25150 | -80.29357 | 8622 ft | 267 kts | 268° |
| 2026-05-03 22:34 | 26.25106 | -80.31413 | 10101 ft | 265 kts | 268° |
| 2026-05-03 22:35 | 26.25058 | -80.33530 | 11043 ft | 284 kts | 267° |
| 2026-05-03 22:35 | 26.25007 | -80.35818 | 11768 ft | 307 kts | 268° |
| 2026-05-03 22:35 | 26.24731 | -80.38246 | 12520 ft | 323 kts | 253° |
| 2026-05-03 22:35 | 26.23939 | -80.40047 | 13397 ft | 0 kts | 236° |
| 2026-05-03 22:36 | 26.22661 | -80.41590 | 14310 ft | 332 kts | 223° |
| 2026-05-03 22:36 | 26.20760 | -80.43096 | 15258 ft | 339 kts | 216° |
| 2026-05-03 22:36 | 26.18716 | -80.44468 | 16172 ft | 346 kts | 214° |
| 2026-05-03 22:36 | 26.16638 | -80.45836 | 17137 ft | 349 kts | 214° |
| 2026-05-03 22:37 | 26.14576 | -80.47229 | 18075 ft | 353 kts | 216° |
| 2026-05-03 22:37 | 26.12481 | -80.48685 | 18921 ft | 356 kts | 216° |
| 2026-05-03 22:37 | 26.10382 | -80.50170 | 19765 ft | 359 kts | 217° |
| 2026-05-03 22:37 | 26.08269 | -80.51676 | 20658 ft | 362 kts | 217° |
| 2026-05-03 22:38 | 26.06131 | -80.53204 | 21448 ft | 367 kts | 217° |
| 2026-05-03 22:38 | 26.03991 | -80.54732 | 22445 ft | 365 kts | 217° |
| 2026-05-03 22:38 | 26.01844 | -80.56264 | 23275 ft | 368 kts | 217° |
| 2026-05-03 22:38 | 25.99670 | -80.57816 | 23946 ft | 373 kts | 217° |
| 2026-05-03 22:39 | 25.97474 | -80.59381 | 24592 ft | 376 kts | 217° |
| 2026-05-03 22:39 | 25.95280 | -80.60944 | 25211 ft | 379 kts | 217° |
| 2026-05-03 22:39 | 25.92868 | -80.62207 | 25729 ft | 396 kts | 201° |
| 2026-05-03 22:39 | 25.90257 | -80.63173 | 26293 ft | 393 kts | 211° |
| 2026-05-03 22:40 | 25.87967 | -80.64775 | 26928 ft | 387 kts | 223° |
| 2026-05-03 22:40 | 25.85922 | -80.66726 | 27587 ft | 389 kts | 225° |
| 2026-05-03 22:40 | 25.83830 | -80.68670 | 28122 ft | 394 kts | 223° |
| 2026-05-03 22:40 | 25.81679 | -80.70580 | 28703 ft | 395 kts | 226° |
| 2026-05-03 22:41 | 25.79772 | -80.72767 | 29245 ft | 394 kts | 234° |
| 2026-05-03 22:41 | 25.78220 | -80.75269 | 29782 ft | 394 kts | 242° |
| 2026-05-03 22:41 | 25.77088 | -80.78050 | 30296 ft | 396 kts | 251° |
| 2026-05-03 22:41 | 25.76288 | -80.80982 | 30806 ft | 398 kts | 253° |
| 2026-05-03 22:42 | 25.75489 | -80.83935 | 31315 ft | 400 kts | 253° |
| 2026-05-03 22:42 | 25.74684 | -80.86888 | 31939 ft | 398 kts | 253° |
| 2026-05-03 22:42 | 25.73895 | -80.89780 | 32603 ft | 396 kts | 253° |
| 2026-05-03 22:42 | 25.73096 | -80.92706 | 33238 ft | 394 kts | 252° |
| 2026-05-03 22:43 | 25.72305 | -80.95604 | 33862 ft | 392 kts | 252° |
| 2026-05-03 22:43 | 25.71518 | -80.98485 | 34446 ft | 389 kts | 252° |
| 2026-05-03 22:43 | 25.70735 | -81.01349 | 34991 ft | 386 kts | 252° |
| 2026-05-03 22:43 | 25.69957 | -81.04189 | 35507 ft | 384 kts | 252° |
| 2026-05-03 22:44 | 25.69181 | -81.07020 | 36019 ft | 382 kts | 252° |
| 2026-05-03 22:44 | 25.68410 | -81.09831 | 36529 ft | 381 kts | 252° |
| 2026-05-03 22:44 | 25.67641 | -81.12631 | 36985 ft | 379 kts | 252° |
| 2026-05-03 22:44 | 25.66880 | -81.15400 | 37405 ft | 379 kts | 252° |
| 2026-05-03 22:45 | 25.66100 | -81.18182 | 37821 ft | 377 kts | 250° |
| 2026-05-03 22:45 | 25.65109 | -81.20865 | 37983 ft | 375 kts | 245° |
| 2026-05-03 22:45 | 25.63851 | -81.23398 | 38016 ft | 375 kts | 239° |
| 2026-05-03 22:46 | 25.60593 | -81.27944 | 38005 ft | 380 kts | 229° |
| 2026-05-03 22:46 | 25.56677 | -81.31866 | 38010 ft | 378 kts | 226° |
| 2026-05-03 22:47 | 25.52751 | -81.35765 | 38012 ft | 379 kts | 226° |
| 2026-05-03 22:47 | 25.48822 | -81.39664 | 38012 ft | 379 kts | 226° |
| 2026-05-03 22:48 | 25.44891 | -81.43558 | 38004 ft | 379 kts | 226° |
| 2026-05-03 22:48 | 25.40982 | -81.47424 | 38011 ft | 379 kts | 226° |
| 2026-05-03 22:49 | 25.37047 | -81.51314 | 38007 ft | 380 kts | 226° |
| 2026-05-03 22:49 | 25.33752 | -81.54570 | 38008 ft | 383 kts | 226° |
| 2026-05-03 22:50 | 25.29777 | -81.58490 | 38006 ft | 382 kts | 226° |
| 2026-05-03 22:50 | 25.25810 | -81.62400 | 38003 ft | 382 kts | 226° |
| 2026-05-03 22:51 | 25.21842 | -81.66308 | 38004 ft | 382 kts | 226° |
| 2026-05-03 22:51 | 25.17635 | -81.69922 | 37997 ft | 386 kts | 219° |
| 2026-05-03 22:52 | 25.12865 | -81.72725 | 37989 ft | 392 kts | 210° |
| 2026-05-03 22:52 | 25.07662 | -81.74726 | 38002 ft | 400 kts | 205° |
| 2026-05-03 22:53 | 25.02328 | -81.76642 | 38004 ft | 402 kts | 205° |
| 2026-05-03 22:53 | 24.97041 | -81.78543 | 38005 ft | 402 kts | 205° |
| 2026-05-03 22:54 | 24.91716 | -81.80457 | 38003 ft | 402 kts | 205° |
| 2026-05-03 22:54 | 24.86390 | -81.82370 | 38006 ft | 402 kts | 205° |
| 2026-05-03 22:55 | 24.81067 | -81.84280 | 38006 ft | 402 kts | 205° |
| 2026-05-03 22:55 | 24.75759 | -81.86188 | 38007 ft | 406 kts | 204° |
| 2026-05-03 22:56 | 24.70380 | -81.88115 | 38009 ft | 406 kts | 204° |
| 2026-05-03 22:56 | 24.65008 | -81.90035 | 38010 ft | 406 kts | 204° |
| 2026-05-03 22:57 | 24.59641 | -81.91953 | 38001 ft | 406 kts | 204° |
| 2026-05-03 22:57 | 24.54293 | -81.93937 | 38001 ft | 402 kts | 209° |
| 2026-05-03 22:58 | 24.49586 | -81.97070 | 37997 ft | 392 kts | 224° |
| 2026-05-03 22:58 | 24.45969 | -82.01450 | 37998 ft | 386 kts | 238° |
| 2026-05-03 22:59 | 24.43481 | -82.06651 | 38001 ft | 385 kts | 245° |
| 2026-05-03 22:59 | 24.41167 | -82.11958 | 38004 ft | 385 kts | 245° |
| 2026-05-03 23:00 | 24.38845 | -82.17251 | 38003 ft | 385 kts | 245° |
| 2026-05-03 23:00 | 24.36519 | -82.22551 | 38004 ft | 386 kts | 245° |
| 2026-05-03 23:01 | 24.34202 | -82.27826 | 38007 ft | 386 kts | 245° |
| 2026-05-03 23:01 | 24.31866 | -82.33140 | 38008 ft | 386 kts | 245° |
| 2026-05-03 23:02 | 24.29530 | -82.38446 | 38009 ft | 386 kts | 245° |
| 2026-05-03 23:02 | 24.27204 | -82.43717 | 38006 ft | 381 kts | 245° |
| 2026-05-03 23:03 | 24.24906 | -82.48925 | 38000 ft | 382 kts | 245° |
| 2026-05-03 23:03 | 24.22575 | -82.54201 | 38013 ft | 382 kts | 245° |
| 2026-05-03 23:04 | 24.20274 | -82.59404 | 37982 ft | 383 kts | 245° |
| 2026-05-03 23:04 | 24.17918 | -82.64726 | 38009 ft | 388 kts | 245° |
| 2026-05-03 23:05 | 24.15564 | -82.70034 | 38011 ft | 387 kts | 245° |
| 2026-05-03 23:05 | 24.13209 | -82.75342 | 38010 ft | 387 kts | 245° |
| 2026-05-03 23:06 | 24.10852 | -82.80645 | 38009 ft | 386 kts | 245° |
| 2026-05-03 23:06 | 24.08521 | -82.85884 | 38006 ft | 385 kts | 245° |
| 2026-05-03 23:07 | 24.06174 | -82.91155 | 38002 ft | 385 kts | 245° |
| 2026-05-03 23:07 | 24.03826 | -82.96422 | 38001 ft | 385 kts | 245° |
| 2026-05-03 23:08 | 24.01865 | -83.00817 | 38004 ft | 385 kts | 245° |
| 2026-05-03 23:08 | 24.01852 | -83.00847 | 38007 ft | 385 kts | 245° |
| 2026-05-03 23:09 | 23.99252 | -83.05985 | 38004 ft | 386 kts | 239° |
| 2026-05-03 23:09 | 23.96088 | -83.10756 | 38004 ft | 388 kts | 236° |
| 2026-05-03 23:10 | 23.92887 | -83.15459 | 38008 ft | 388 kts | 236° |
| 2026-05-03 23:10 | 23.89669 | -83.20192 | 38008 ft | 389 kts | 237° |
| 2026-05-03 23:11 | 23.86417 | -83.24971 | 38010 ft | 391 kts | 236° |
| 2026-05-03 23:11 | 23.83167 | -83.29739 | 38010 ft | 391 kts | 236° |